Terminal Aerodrome Forecast
Issued by NWS Duluth, MN

Home | Current Version | Previous Version | Text Only | Print | Product List | Glossary On
Versions: 1 2 3 4 5 6 7 8 9 10 11 12 13 14 15 16 17 18 19 20 21 22 23
413
FTUS43 KDLH 191729
TAFDLH
TAF
KDLH 191729Z 1918/2018 19008KT P6SM SKC
     FM192100 16010KT P6SM VCSH SCT070 BKN150
     FM200100 13008KT P6SM BKN100
     FM200600 VRB04KT 2SM BR SCT006
      TEMPO 2007/2011 3/4SM BR SCT005=

USA.gov is the U.S. government's official web portal to all federal, state and local government web resources and services.